Data for 06/21/2009

Time Sea-Level Adjusted Pressure Absolute Pressure Temperature Relative Humidity Dew Point   
(mb) (inHg) (mb) (inHg) (C) (F) (%) (C) (F)
00:05 1010 29.83 839 24.78 10.6 51.1 89 8.9 48.1
00:10 1010 29.83 839 24.78 10.6 51 89 8.9 48
00:15 1010 29.83 839 24.78 10.5 51 89 8.9 48
00:20 1010 29.83 839 24.78 10.5 50.9 90 8.9 48
00:25 1010 29.83 839 24.78 10.5 50.8 89 8.7 47.7
00:30 1010 29.83 839 24.78 10.5 50.8 89 8.7 47.7
00:35 1010 29.83 839 24.78 10.4 50.8 89 8.8 47.8
00:40 1010 29.83 839 24.78 10.3 50.6 89 8.7 47.6
00:45 1010 29.83 839 24.78 10.3 50.5 89 8.5 47.3
00:50 1010 29.83 839 24.78 10.3 50.5 88 8.4 47.2
00:55 1010 29.83 839 24.78 10.3 50.5 88 8.4 47.2
01:00 1010 29.83 839 24.78 10.2 50.4 88 8.3 47
01:05 1010 29.83 839 24.78 10.2 50.3 88 8.3 46.9
01:10 1010 29.83 839 24.78 10.1 50.3 88 8.3 46.9
01:15 1010 29.83 839 24.78 10.1 50.2 89 8.4 47
01:20 1010 29.83 839 24.78 10 50.1 89 8.3 46.9
01:25 1010 29.83 839 24.78 10 50 89 8.3 47
01:30 1010 29.83 839 24.78 10 50 90 8.4 47.1
01:35 1010 29.83 839 24.78 10 50 90 8.5 47.3
01:40 1010 29.83 839 24.78 10 49.9 92 8.6 47.6
01:45 1010 29.83 839 24.78 9.9 49.8 92 8.7 47.7
01:50 1010 29.83 839 24.78 9.9 49.8 92 8.7 47.7
01:55 1010 29.83 839 24.78 9.9 49.8 93 8.8 47.8
02:00 1010 29.83 839 24.78 9.8 49.7 93 8.8 47.9
02:05 1010 29.83 839 24.78 9.8 49.7 94 8.8 47.9
02:10 1010 29.83 839 24.78 9.8 49.7 94 8.9 48
02:15 1010 29.83 839 24.78 9.8 49.6 94 8.9 47.9
02:20 1010 29.83 839 24.78 9.7 49.5 94 8.8 47.8
02:25 1010 29.83 839 24.78 9.8 49.6 94 8.8 47.8
02:30 1010 29.83 839 24.78 9.7 49.5 94 8.9 47.9
02:35 1010 29.83 839 24.78 9.7 49.5 95 8.9 48
02:40 1010 29.83 839 24.78 9.6 49.3 95 8.8 47.9
02:45 1010 29.83 839 24.78 9.5 49.2 95 8.8 47.8
02:50 1010 29.83 839 24.78 9.5 49 96 8.8 47.9
02:55 1010 29.83 839 24.78 9.5 49.1 96 8.8 47.9
03:00 1010 29.83 839 24.78 9.5 49 95 8.7 47.7
03:05 1010 29.83 839 24.78 9.4 48.9 95 8.7 47.7
03:10 1010 29.83 839 24.78 9.5 49 96 8.8 47.8
03:15 1010 29.83 839 24.78 9.4 49 95 8.7 47.6
03:20 1010 29.83 839 24.78 9.4 48.9 95 8.7 47.6
03:25 1010 29.83 839 24.78 9.4 48.9 95 8.7 47.6
03:30 1010 29.83 839 24.78 9.4 48.9 95 8.7 47.6
03:35 1010 29.83 839 24.78 9.3 48.8 95 8.6 47.4
03:40 1010 29.83 839 24.78 9.3 48.8 95 8.6 47.5
03:45 1010 29.83 839 24.78 9.3 48.8 95 8.6 47.4
03:50 1010 29.83 839 24.78 9.3 48.7 95 8.5 47.4
03:55 1010 29.83 839 24.78 9.3 48.7 95 8.5 47.2
04:00 1010 29.83 839 24.78 9.3 48.7 95 8.5 47.3
04:05 1010 29.83 839 24.78 9.2 48.6 94 8.3 47
04:10 1010 29.83 839 24.78 9.2 48.5 95 8.4 47.2
04:15 1010 29.83 840 24.81 9.2 48.6 95 8.4 47.1
04:20 1010 29.83 840 24.81 9.2 48.6 95 8.4 47.1
04:25 1010 29.83 839 24.78 9.2 48.6 95 8.4 47.1
04:30 1010 29.83 839 24.78 9.2 48.6 95 8.4 47.1
04:35 1010 29.83 839 24.78 9.2 48.6 95 8.4 47.1
04:40 1010 29.83 839 24.78 9.2 48.6 95 8.4 47.1
04:45 1010 29.83 839 24.78 9.1 48.4 95 8.4 47.1
04:50 1010 29.83 839 24.78 9.1 48.4 95 8.4 47.1
04:55 1010 29.83 839 24.78 9.2 48.5 95 8.4 47.1
05:00 1010 29.83 839 24.78 9.2 48.6 95 8.4 47.1
05:05 1010 29.83 839 24.78 9.3 48.7 95 8.5 47.2
05:10 1010 29.83 839 24.78 9.3 48.7 95 8.5 47.4
05:15 1010 29.83 839 24.78 9.2 48.6 95 8.5 47.4
05:20 1010 29.83 839 24.78 9.2 48.6 95 8.5 47.3
05:25 1010 29.83 839 24.78 9.3 48.7 95 8.5 47.3
05:30 1010 29.83 839 24.78 9.3 48.8 95 8.5 47.4
05:35 1010 29.83 839 24.78 9.4 48.9 95 8.6 47.5
05:40 1010 29.83 839 24.78 9.4 48.9 94 8.5 47.2
05:45 1010 29.83 839 24.78 9.4 48.8 93 8.4 47
05:50 1010 29.83 839 24.78 9.4 48.8 94 8.4 47.2
05:55 1010 29.83 839 24.78 9.4 48.9 94 8.5 47.3
06:00 1010 29.83 839 24.78 9.4 48.9 94 8.5 47.3
06:05 1010 29.83 839 24.78 9.3 48.8 94 8.5 47.3
06:10 1010 29.83 839 24.78 9.3 48.8 95 8.5 47.4
06:15 1010 29.83 839 24.78 9.3 48.7 95 8.5 47.4
06:20 1010 29.83 840 24.81 9.3 48.7 95 8.6 47.5
06:25 1010 29.83 840 24.81 9.3 48.7 96 8.7 47.6
06:30 1010 29.83 840 24.81 9.3 48.7 96 8.7 47.7
06:35 1010 29.83 840 24.81 9.3 48.7 96 8.7 47.7
06:40 1010 29.83 840 24.81 9.3 48.7 96 8.7 47.6
06:45 1010 29.83 840 24.81 9.3 48.7 96 8.7 47.6
06:50 1010 29.83 840 24.81 9.3 48.7 96 8.7 47.6
06:55 1010 29.83 840 24.81 9.3 48.8 96 8.8 47.8
07:00 1010 29.83 840 24.81 9.3 48.8 96 8.7 47.7
07:05 1011 29.85 840 24.81 9.3 48.7 96 8.7 47.6
07:10 1011 29.85 840 24.81 9.3 48.8 96 8.7 47.7
07:15 1010 29.83 840 24.81 9.4 48.9 96 8.7 47.7
07:20 1010 29.83 840 24.81 9.4 49 95 8.7 47.7
07:25 1010 29.83 840 24.81 9.4 48.9 95 8.7 47.6
07:30 1011 29.85 840 24.81 9.4 49 95 8.6 47.5
07:35 1011 29.85 840 24.81 9.5 49 94 8.6 47.5
07:40 1011 29.85 840 24.81 9.5 49.1 94 8.6 47.5
07:45 1011 29.85 840 24.81 9.6 49.4 93 8.6 47.5
07:50 1011 29.85 840 24.81 9.8 49.7 93 8.8 47.8
07:55 1011 29.85 840 24.81 10 49.9 93 8.8 47.9
08:00 1011 29.85 840 24.81 10 50 93 8.8 47.9
08:05 1011 29.85 840 24.81 9.9 49.9 93 8.8 47.9
08:10 1011 29.85 840 24.81 9.9 49.8 93 8.8 47.8
08:15 1011 29.85 840 24.81 10 50.1 92 8.7 47.7
08:20 1011 29.85 840 24.81 10.2 50.4 91 8.8 47.8
08:25 1011 29.85 840 24.81 10.3 50.6 91 8.9 48
08:30 1011 29.85 840 24.81 10.3 50.6 90 8.8 47.8
08:35 1011 29.85 840 24.81 10.4 50.7 92 9.1 48.4
08:40 1011 29.85 840 24.81 10.6 51.1 92 9.4 49
08:45 1011 29.85 840 24.81 10.8 51.4 90 9.2 48.6
08:50 1011 29.85 840 24.81 10.9 51.7 91 9.5 49
08:55 1011 29.85 840 24.81 11.2 52.2 86 9 48.2
09:00 1011 29.85 840 24.81 11.2 52.2 87 9.1 48.4
09:05 1011 29.85 840 24.81 11.2 52.2 85 8.8 47.9
09:10 1011 29.85 840 24.81 11.4 52.6 84 8.9 48
09:15 1011 29.85 840 24.81 11.7 53.1 83 8.9 48
09:20 1011 29.85 840 24.81 11.9 53.5 84 9.3 48.7
09:25 1011 29.85 840 24.81 12.2 53.9 81 9 48.3
09:30 1011 29.85 840 24.81 12.5 54.5 79 9 48.2
09:35 1011 29.85 840 24.81 12.3 54.2 81 9.3 48.7
09:40 1011 29.85 840 24.81 12.6 54.6 79 9.1 48.4
09:45 1011 29.85 840 24.81 12.8 55.1 80 9.5 49
09:50 1011 29.85 840 24.81 13 55.4 79 9.4 49
09:55 1011 29.85 840 24.81 12.6 54.6 81 9.4 48.9
10:00 1011 29.85 840 24.81 13 55.3 76 8.8 47.8
10:05 1011 29.85 840 24.81 13.9 56.9 73 9.2 48.6
10:10 1011 29.85 840 24.81 14.4 58 69 8.9 48
10:15 1011 29.85 840 24.81 14.1 57.4 69 8.6 47.4
10:20 1011 29.85 840 24.81 14.7 58.4 68 9 48.1
10:25 1011 29.85 840 24.81 15.9 60.7 63 9.1 48.3
10:30 1011 29.85 840 24.81 16.2 61.2 64 9.5 49.1
10:35 1011 29.85 840 24.81 15.9 60.6 61 8.6 47.5
10:40 1011 29.85 840 24.81 15.2 59.4 65 8.7 47.6
10:45 1011 29.85 840 24.81 15.5 59.9 67 9.5 49.1
10:50 1011 29.85 840 24.81 14.9 58.8 68 9.2 48.6
10:55 1011 29.85 840 24.81 14.5 58 69 9 48.2
11:00 1011 29.85 840 24.81 14.8 58.6 67 8.7 47.6
11:05 1011 29.85 840 24.81 15.1 59.2 63 8.3 46.9
11:10 1011 29.85 840 24.81 16.3 61.3 64 9.5 49
11:15 1011 29.85 840 24.81 17 62.5 59 9.1 48.4
11:20 1011 29.85 840 24.81 15.7 60.2 63 8.8 47.8
11:25 1011 29.85 840 24.81 16.1 60.9 59 8.2 46.7
11:30 1011 29.85 840 24.81 16.4 61.5 61 8.8 47.9
11:35 1011 29.85 840 24.81 16.7 62 61 9.1 48.4
11:40 1011 29.85 840 24.81 16.8 62.3 59 8.8 47.9
11:45 1011 29.85 840 24.81 16.3 61.3 59 8.4 47.1
11:50 1011 29.85 840 24.81 17.5 63.5 55 8.5 47.4
11:55 1011 29.85 840 24.81 18.1 64.7 54 8.8 47.8
12:00 1011 29.85 840 24.81 17.6 63.6 54 8.2 46.8
12:05 1011 29.85 840 24.81 18 64.4 52 8 46.4
12:10 1011 29.85 840 24.81 18.6 65.4 49 7.8 46
12:15 1011 29.85 840 24.81 18.7 65.7 48 7.5 45.5
12:20 1011 29.85 840 24.81 18.6 65.5 53 9 48.2
12:25 1010 29.83 840 24.81 18.2 64.7 50 7.7 45.8
12:30 1010 29.83 840 24.81 17.4 63.4 52 7.5 45.5
12:35 1010 29.83 840 24.81 17.7 63.8 52 7.7 45.9
12:40 1010 29.83 840 24.81 18.4 65.1 50 7.8 46.1
12:45 1010 29.83 840 24.81 18.5 65.4 48 7.5 45.5
12:50 1010 29.83 840 24.81 18.3 64.9 49 7.6 45.6
12:55 1010 29.83 840 24.81 17.7 63.9 57 9.2 48.5
13:00 1010 29.83 840 24.81 16.5 61.8 60 8.8 47.8
13:05 1010 29.83 840 24.81 16.1 61 60 8.4 47.1
13:10 1010 29.83 840 24.81 16.5 61.7 55 7.5 45.4
13:15 1010 29.83 840 24.81 16 60.9 59 8.1 46.7
13:20 1010 29.83 840 24.81 15.7 60.3 57 7.3 45.1
13:25 1010 29.83 840 24.81 16.8 62.3 59 8.9 48
13:30 1010 29.83 839 24.78 18.4 65 61 10.8 51.5
13:35 1010 29.83 839 24.78 19.1 66.4 55 10 49.9
13:40 1010 29.83 839 24.78 17.5 63.4 61 9.9 49.7
13:45 1010 29.83 839 24.78 16.7 62 62 9.4 48.9
13:50 1010 29.83 839 24.78 16.3 61.4 59 8.4 47.1
13:55 1010 29.83 839 24.78 16.4 61.6 57 8 46.4
14:00 1010 29.83 839 24.78 17.6 63.7 52 7.8 46
14:05 1010 29.83 839 24.78 17.9 64.3 54 8.6 47.4
14:10 1010 29.83 839 24.78 17.4 63.2 56 8.5 47.3
14:15 1010 29.83 839 24.78 17.6 63.7 53 8 46.5
14:20 1010 29.83 839 24.78 17.9 64.3 48 7 44.6
14:25 1010 29.83 839 24.78 18.4 65 50 7.8 46.1
14:30 1010 29.83 839 24.78 18.8 65.8 50 8.1 46.6
14:35 1010 29.83 839 24.78 18.7 65.6 49 8 46.3
14:40 1010 29.83 839 24.78 17.9 64.3 51 7.9 46.2
14:45 1010 29.83 839 24.78 18.1 64.6 49 7.4 45.4
14:50 1010 29.83 839 24.78 19.3 66.8 46 7.6 45.7
14:55 1010 29.83 839 24.78 19.3 66.7 48 8 46.4
15:00 1010 29.83 839 24.78 18.7 65.7 45 6.8 44.2
15:05 1010 29.83 839 24.78 19.9 67.7 45 7.7 45.8
15:10 1010 29.83 839 24.78 19.7 67.5 45 7.6 45.7
15:15 1010 29.83 839 24.78 20.4 68.7 41 6.7 44.1
15:20 1010 29.83 839 24.78 20.1 68.1 42 7 44.6
15:25 1009 29.8 839 24.78 19.1 66.4 44 6.6 43.9
15:30 1009 29.8 839 24.78 19.7 67.4 43 6.9 44.4
15:35 1009 29.8 839 24.78 20.1 68.2 41 6.6 43.9
15:40 1009 29.8 839 24.78 20.4 68.8 37 5.2 41.4
15:45 1010 29.83 839 24.78 21.2 70.2 37 6.2 43.2
15:50 1010 29.83 839 24.78 20.7 69.2 39 6.3 43.4
15:55 1010 29.83 839 24.78 20 68 43 7.1 44.8
16:00 1010 29.83 839 24.78 19.6 67.3 44 7.1 44.8
16:05 1010 29.83 839 24.78 19.2 66.5 42 6.2 43.1
16:10 1010 29.83 839 24.78 19.8 67.6 41 6.3 43.3
16:15 1010 29.83 839 24.78 19.7 67.4 40 6 42.8
16:20 1010 29.83 839 24.78 20.1 68.2 40 6.2 43.1
16:25 1010 29.83 839 24.78 20.3 68.6 40 6.4 43.5
16:30 1010 29.83 839 24.78 20.1 68.1 41 6.5 43.7
16:35 1010 29.83 839 24.78 20 68.1 39 5.7 42.3
16:40 1010 29.83 839 24.78 21.1 70 36 5.8 42.4
16:45 1009 29.8 839 24.78 21.3 70.4 34 5.2 41.3
16:50 1009 29.8 839 24.78 20.7 69.2 34 4.6 40.3
16:55 1009 29.8 839 24.78 20.5 69 33 3.8 38.9
17:00 1009 29.8 839 24.78 20.4 68.7 35 4.6 40.2
17:05 1009 29.8 839 24.78 20.3 68.5 35 4.6 40.4
17:10 1009 29.8 839 24.78 20.4 68.6 33 3.6 38.4
17:15 1009 29.8 839 24.78 20.2 68.4 33 3.8 38.8
17:20 1009 29.8 839 24.78 20.2 68.3 33 3.5 38.3
17:25 1009 29.8 839 24.78 19.8 67.7 34 3.8 38.9
17:30 1010 29.83 839 24.78 19.8 67.7 35 4 39.3
17:35 1010 29.83 839 24.78 19.7 67.4 35 3.8 38.9
17:40 1010 29.83 839 24.78 19.4 67 37 4.5 40.1
17:45 1010 29.83 839 24.78 18.9 66 44 6.7 44
17:50 1010 29.83 839 24.78 18 64.3 52 8 46.4
17:55 1010 29.83 839 24.78 17.1 62.7 53 7.6 45.8
18:00 1010 29.83 839 24.78 17 62.5 53 7.4 45.3
18:05 1010 29.83 839 24.78 16.8 62.3 53 7.2 44.9
18:10 1010 29.83 839 24.78 16.3 61.3 56 7.6 45.7
18:15 1010 29.83 839 24.78 15.5 59.9 60 8 46.3
18:20 1010 29.83 839 24.78 14.9 58.7 61 7.6 45.6
18:25 1010 29.83 839 24.78 14.3 57.7 64 7.7 45.9
18:30 1010 29.83 839 24.78 13.7 56.7 67 7.7 45.8
18:35 1010 29.83 839 24.78 13.4 56.1 67 7.5 45.6
18:40 1010 29.83 840 24.81 13.6 56.4 66 7.3 45.2
18:45 1010 29.83 840 24.81 13.7 56.6 63 6.9 44.5
18:50 1011 29.85 840 24.81 13.7 56.6 65 7.3 45.1
18:55 1011 29.85 840 24.81 13.7 56.6 64 7.1 44.8
19:00 1011 29.85 840 24.81 13.4 56.2 67 7.6 45.7
19:05 1011 29.85 840 24.81 13.2 55.7 68 7.4 45.4
19:10 1011 29.85 840 24.81 13.4 56.2 64 6.9 44.3
19:15 1011 29.85 840 24.81 13.6 56.5 64 7 44.5
19:20 1011 29.85 840 24.81 13.8 56.9 63 7.1 44.7
19:25 1011 29.85 840 24.81 14.1 57.3 62 6.9 44.5
19:30 1011 29.85 840 24.81 14.1 57.5 62 7 44.6
19:35 1011 29.85 840 24.81 14 57.2 67 8 46.5
19:40 1011 29.85 840 24.81 13.5 56.3 68 7.6 45.8
19:45 1011 29.85 840 24.81 13.5 56.2 63 6.5 43.8
19:50 1011 29.85 840 24.81 13.6 56.5 65 7.2 44.9
19:55 1011 29.85 840 24.81 13.6 56.4 65 7.1 44.8
20:00 1011 29.85 840 24.81 13.5 56.4 65 7.2 44.9
20:05 1011 29.85 840 24.81 13.5 56.3 63 6.8 44.2
20:10 1011 29.85 840 24.81 13.6 56.4 64 7 44.6
20:15 1011 29.85 840 24.81 13.5 56.3 65 7.1 44.7
20:20 1011 29.85 840 24.81 13.5 56.3 64 6.9 44.4
20:25 1011 29.85 840 24.81 13.6 56.5 65 7.3 45.1
20:30 1011 29.85 840 24.81 13.5 56.2 66 7.3 45.1
20:35 1011 29.85 840 24.81 13.4 56.2 64 6.8 44.3
20:40 1011 29.85 840 24.81 13.4 56.2 66 7.2 45
20:45 1011 29.85 840 24.81 13.4 56 66 7.2 45
20:50 1011 29.85 840 24.81 13.3 55.9 68 7.5 45.6
20:55 1011 29.85 840 24.81 13.2 55.7 69 7.6 45.7
21:00 1011 29.85 840 24.81 13.1 55.5 69 7.5 45.5
21:05 1011 29.85 840 24.81 13 55.5 68 7.4 45.3
21:10 1011 29.85 840 24.81 13 55.4 70 7.7 45.8
21:15 1011 29.85 840 24.81 12.9 55.2 73 8.1 46.6
21:20 1011 29.85 840 24.81 12.6 54.7 75 8.3 46.9
21:25 1011 29.85 840 24.81 12.4 54.3 77 8.4 47.2
21:30 1011 29.85 840 24.81 12.3 54.1 77 8.3 47
21:35 1011 29.85 840 24.81 12.2 54 77 8.4 47.1
21:40 1011 29.85 840 24.81 12.2 53.9 77 8.3 46.9
21:45 1011 29.85 840 24.81 12.2 53.9 76 8.1 46.6
21:50 1011 29.85 840 24.81 12.2 54 76 8.2 46.8
21:55 1011 29.85 840 24.81 12.3 54.1 75 8 46.5
22:00 1011 29.85 840 24.81 12.2 53.9 76 8.1 46.6
22:05 1011 29.85 841 24.83 12.1 53.8 75 7.9 46.2
22:10 1011 29.85 841 24.83 12.2 53.9 75 7.9 46.3
22:15 1011 29.85 840 24.81 12.1 53.9 75 7.9 46.2
22:20 1011 29.85 840 24.81 12.1 53.8 76 8 46.3
22:25 1011 29.85 840 24.81 12.1 53.7 76 8 46.4
22:30 1011 29.85 841 24.83 11.9 53.4 77 8 46.4
22:35 1011 29.85 841 24.83 11.7 53.1 78 8 46.4
22:40 1012 29.88 841 24.83 11.7 53.1 78 8 46.4
22:45 1011 29.85 841 24.83 11.7 53.1 80 8.4 47.1
22:50 1011 29.85 841 24.83 11.5 52.8 80 8.3 46.9
22:55 1012 29.88 841 24.83 11.6 52.9 80 8.4 47.1
23:00 1012 29.88 841 24.83 11.7 53.1 80 8.4 47
23:05 1012 29.88 841 24.83 11.8 53.2 78 8.2 46.7
23:10 1012 29.88 841 24.83 12 53.6 78 8.3 46.9
23:15 1012 29.88 841 24.83 12.1 53.8 72 7.3 45.1
23:20 1012 29.88 841 24.83 12.2 54 74 7.8 46
23:25 1012 29.88 841 24.83 12.3 54.2 73 7.7 45.9
23:30 1012 29.88 841 24.83 12.3 54.2 74 7.9 46.2
23:35 1012 29.88 841 24.83 12.2 54 73 7.7 45.8
23:40 1012 29.88 841 24.83 12.3 54.1 72 7.5 45.5
23:45 1012 29.88 841 24.83 12.4 54.4 72 7.6 45.7
23:50 1012 29.88 841 24.83 12.4 54.3 70 7.2 45
23:55 1012 29.88 841 24.83 12.4 54.4 70 7.2 44.9
24:00 1012 29.88 841 24.83 12.4 54.4 71 7.4 45.3